< < Back
Terminal Aerodrome Forecast


Current Version              Previous Versions:   1  2  3  4  5  6  7  8  9  

Terminal Aerodrome Forecast

832
FTUS42 KJAX 281400 AAA
TAFJAX
TAF AMD
KJAX 281411Z 2814/2912 01008G18KT P6SM SKC
     FM282200 05005KT P6SM FEW250
     FM290200 00000KT P6SM SKC=



Latest METAR

651
SAUS80 KWBC 281800 CCA
MTRJAX
METAR KJAX 281756Z 03009KT 10SM FEW040 12/00 A3034 RMK AO2 SLP275
T01170000 10117 20017 58016 $


USA.gov is the U.S. government's official web portal to all federal, state and local government web resources and services.